Time;durP1;ratioP1;P1;durP2;ratioP2;P2;SDS_P1;SDS_P2;PMS_P1;PMS_P2;Temp;Humidity;BMP_temperature;BMP_pressure;BME280_temperature;BME280_humidity;BME280_pressure;Samples;Min_cycle;Max_cycle;Signal;HPM_P1;HPM_P2
2023/09/13 08:26:42;;;;;;;10.45;3.05;;;;;;;24.09;46.92;101198.72;4889656;23;20135;-95
2023/09/13 08:29:08;;;;;;;8.10;2.08;;;;;;;23.52;46.73;101201.00;4936100;29;20486;-96
2023/09/13 08:31:33;;;;;;;6.47;1.60;;;;;;;24.47;45.29;101204.50;4932510;29;20028;-96
2023/09/13 08:33:59;;;;;;;7.57;1.92;;;;;;;23.89;46.67;101206.84;4936199;29;20028;-96
2023/09/13 08:36:24;;;;;;;6.75;1.67;;;;;;;23.81;46.50;101198.91;5109548;23;20078;-96
2023/09/13 08:38:49;;;;;;;6.40;1.58;;;;;;;23.80;47.19;101204.31;5029659;23;20127;-96
2023/09/13 09:48:28;;;;;;;4.65;1.60;;;;;;;24.33;46.45;101229.66;4938288;29;20219;-96
2023/09/13 09:50:54;;;;;;;4.30;1.50;;;;;;;24.62;45.32;101224.00;4939118;29;20024;-96
2023/09/13 09:53:21;;;;;;;5.60;1.75;;;;;;;24.41;44.49;101226.22;4940643;29;20032;-96
2023/09/13 10:58:04;;;;;;;6.72;1.42;;;;;;;21.26;49.85;101223.22;5588623;23;20078;-96
2023/09/13 11:05:41;;;;;;;9.07;2.60;;;;;;;23.39;47.87;101220.66;5416290;23;20059;-96
2023/09/13 11:08:11;;;;;;;4.82;1.45;;;;;;;23.40;46.01;101214.41;4998705;23;20036;-96
2023/09/13 11:10:37;;;;;;;5.30;1.40;;;;;;;23.19;46.03;101225.28;4950070;29;20024;-96
2023/09/13 11:13:12;;;;;;;3.60;1.33;;;;;;;24.14;44.07;101230.72;4947918;29;20039;-94
2023/09/13 11:15:49;;;;;;;5.05;1.63;;;;;;;24.32;45.50;101234.09;4945247;29;20059;-96
2023/09/13 11:18:15;;;;;;;4.60;1.60;;;;;;;25.07;43.68;101232.50;4943356;29;20478;-95
2023/09/13 11:26:00;;;;;;;4.13;2.05;;;;;;;23.75;43.99;101241.72;4963470;23;20048;-96
2023/09/13 11:33:43;;;;;;;4.13;2.50;;;;;;;24.33;45.36;101230.47;5465559;23;20033;-96
2023/09/13 11:36:09;;;;;;;4.30;1.45;;;;;;;23.77;43.89;101229.19;4946350;29;20059;-96
2023/09/13 11:38:35;;;;;;;2.17;1.30;;;;;;;23.29;43.36;101223.38;4959565;29;20386;-94
2023/09/13 11:41:01;;;;;;;6.25;1.60;;;;;;;22.91;45.56;101221.84;4966828;28;20039;-96
2023/09/13 11:43:28;;;;;;;3.90;1.90;;;;;;;22.81;45.24;101218.47;4933906;29;20016;-96
2023/09/13 11:45:58;;;;;;;5.97;1.63;;;;;;;22.52;45.81;101224.72;4931747;29;20044;-96
2023/09/13 11:48:45;;;;;;;4.28;1.23;;;;;;;22.58;46.21;101221.53;4935920;29;20019;-96
2023/09/13 11:51:13;;;;;;;5.22;1.60;;;;;;;23.75;44.95;101210.09;4913491;29;20029;-96
2023/09/13 11:53:42;;;;;;;3.83;1.17;;;;;;;23.93;42.00;101213.47;4928188;29;20028;-96
2023/09/13 11:58:49;;;;;;;4.45;1.45;;;;;;;24.64;40.74;101211.47;5918072;23;20030;-96
2023/09/13 12:01:14;;;;;;;3.15;1.48;;;;;;;24.30;40.12;101214.97;4947178;29;20036;-96
2023/09/13 12:03:39;;;;;;;3.08;1.30;;;;;;;24.00;42.10;101218.97;4932683;29;20123;-96
2023/09/13 12:08:41;;;;;;;4.70;1.83;;;;;;;22.63;44.42;101218.44;5192207;23;20051;-96
2023/09/13 12:11:10;;;;;;;4.13;1.40;;;;;;;21.82;45.90;101223.44;4916671;29;20119;-96
2023/09/13 12:13:52;;;;;;;3.22;1.05;;;;;;;23.63;43.38;101220.03;4921652;29;20036;-95
2023/09/13 12:16:18;;;;;;;2.63;1.15;;;;;;;24.06;42.70;101214.84;4906885;29;20035;-96
2023/09/13 12:18:44;;;;;;;5.07;1.67;;;;;;;23.24;43.39;101225.66;4995010;23;20133;-96
2023/09/13 12:21:11;;;;;;;6.70;1.80;;;;;;;24.37;41.22;101223.06;4933876;29;20027;-95
2023/09/13 12:23:41;;;;;;;4.13;1.73;;;;;;;23.78;42.56;101209.78;4917970;29;20043;-93
2023/09/13 12:26:15;;;;;;;8.80;1.73;;;;;;;22.53;44.54;101222.91;4917131;29;20486;-94
2023/09/13 12:28:42;;;;;;;5.18;1.38;;;;;;;22.79;43.76;101228.31;4929965;29;20031;-96
2023/09/13 12:31:12;;;;;;;6.18;2.10;;;;;;;22.65;44.35;101222.59;4937583;29;20054;-95
2023/09/13 12:33:40;;;;;;;18.35;2.75;;;;;;;22.61;47.50;101217.78;4924003;29;20483;-96
2023/09/13 12:36:06;;;;;;;8.48;2.03;;;;;;;23.10;45.73;101213.03;4924959;29;20047;-93
2023/09/13 12:38:43;;;;;;;6.40;1.65;;;;;;;23.78;45.36;101201.88;4924342;29;20030;-95
2023/09/13 12:41:26;;;;;;;39.97;4.60;;;;;;;23.29;44.89;101204.13;4917261;29;20828;-93
2023/09/13 12:43:52;;;;;;;4.65;1.30;;;;;;;23.05;44.80;101205.56;4924688;29;20056;-96
2023/09/13 12:46:20;;;;;;;6.68;1.63;;;;;;;23.63;43.72;101195.47;4911747;29;20071;-95
2023/09/13 12:49:07;;;;;;;4.18;1.40;;;;;;;23.68;44.26;101193.22;4938709;29;20023;-96
2023/09/13 12:54:08;;;;;;;5.82;1.60;;;;;;;23.07;43.10;101179.91;5280475;23;20051;-96
2023/09/13 12:56:35;;;;;;;4.55;1.70;;;;;;;23.71;42.31;101177.06;5071541;23;20064;-96
2023/09/13 12:59:00;;;;;;;4.18;1.70;;;;;;;24.03;43.45;101175.63;4960086;29;20134;-96
2023/09/13 13:01:31;;;;;;;7.75;2.05;;;;;;;23.65;44.55;101177.69;4947187;28;20024;-96
2023/09/13 13:04:02;;;;;;;4.87;1.60;;;;;;;23.49;41.93;101181.88;4921131;29;20100;-96
2023/09/13 13:14:14;;;;;;;4.63;1.75;;;;;;;23.99;42.96;101163.72;5032136;23;20027;-96
2023/09/13 13:16:42;;;;;;;5.85;1.70;;;;;;;24.06;42.44;101167.38;4945988;29;20039;-96
2023/09/13 13:19:08;;;;;;;10.82;1.70;;;;;;;23.55;42.24;101176.97;4949080;29;20066;-96
2023/09/13 13:24:09;;;;;;;4.95;1.92;;;;;;;22.99;42.63;101171.94;5577617;23;20513;-91
2023/09/13 13:26:34;;;;;;;5.93;1.92;;;;;;;23.16;44.21;101177.34;4931677;29;20052;-96
2023/09/13 13:29:05;;;;;;;5.40;1.65;;;;;;;23.22;44.61;101179.38;4953680;28;20028;-96
2023/09/13 13:31:30;;;;;;;11.77;2.20;;;;;;;23.82;41.15;101174.19;4946276;28;20056;-92
2023/09/13 13:33:56;;;;;;;7.38;2.50;;;;;;;23.98;41.88;101172.63;4913197;29;20128;-92
2023/09/13 13:36:21;;;;;;;5.93;1.65;;;;;;;23.60;42.39;101174.69;4917080;29;20089;-95
2023/09/13 13:38:46;;;;;;;3.08;1.50;;;;;;;23.45;43.83;101175.25;4916898;29;20032;-96
2023/09/13 13:41:14;;;;;;;5.45;1.73;;;;;;;23.39;42.98;101173.25;4917686;29;20024;-95
2023/09/13 13:43:40;;;;;;;7.45;2.10;;;;;;;22.65;43.53;101171.75;4918188;29;20086;-96
2023/09/13 13:46:08;;;;;;;3.58;1.52;;;;;;;22.82;42.97;101173.59;4917257;29;20546;-94
2023/09/13 13:48:37;;;;;;;4.32;1.88;;;;;;;22.94;43.82;101174.16;4915909;29;20094;-94
2023/09/13 13:51:03;;;;;;;4.97;1.70;;;;;;;22.93;43.55;101169.88;4917403;29;20036;-94
2023/09/13 13:53:29;;;;;;;4.32;1.70;;;;;;;22.83;43.01;101166.50;4917213;29;20043;-95
2023/09/13 13:56:02;;;;;;;3.55;1.60;;;;;;;22.53;45.61;101160.63;4922537;29;20028;-94
2023/09/13 13:58:28;;;;;;;2.63;1.63;;;;;;;22.83;46.76;101163.88;4923266;29;20027;-94
2023/09/13 14:00:55;;;;;;;6.30;2.00;;;;;;;22.58;43.82;101166.28;4934285;29;20028;-96
2023/09/13 14:03:22;;;;;;;3.78;1.80;;;;;;;22.03;44.29;101168.88;5071780;23;20051;-96
2023/09/13 14:05:48;;;;;;;5.53;1.80;;;;;;;21.90;44.54;101158.69;4897403;29;20037;-94
2023/09/13 14:08:16;;;;;;;4.75;1.42;;;;;;;22.49;44.17;101156.63;4895454;29;20479;-95
2023/09/13 14:10:42;;;;;;;5.68;2.17;;;;;;;22.11;43.85;101161.09;4900900;29;20035;-95
2023/09/13 14:13:08;;;;;;;3.72;2.00;;;;;;;22.13;45.73;101153.88;4883846;29;20032;-96
2023/09/13 14:15:35;;;;;;;9.50;1.95;;;;;;;22.21;44.82;101164.56;4894785;29;20032;-96
2023/09/13 14:18:00;;;;;;;4.38;1.40;;;;;;;22.25;44.91;101161.63;4880245;29;20028;-96
2023/09/13 14:20:25;;;;;;;3.63;1.80;;;;;;;21.85;45.93;101160.09;4878775;29;20116;-96
2023/09/13 14:22:51;;;;;;;5.22;1.73;;;;;;;21.65;45.25;101154.91;4879827;29;20480;-95
2023/09/13 14:25:16;;;;;;;5.30;1.77;;;;;;;21.76;46.08;101157.34;4882415;29;20496;-95
2023/09/13 14:27:41;;;;;;;2.42;1.40;;;;;;;21.63;45.72;101150.75;4880514;29;20020;-95
2023/09/13 14:30:07;;;;;;;6.82;2.10;;;;;;;21.47;45.61;101146.94;4882364;29;20029;-96
2023/09/13 14:32:32;;;;;;;5.15;1.90;;;;;;;21.65;45.09;101144.38;4897151;29;20071;-94
2023/09/13 14:34:59;;;;;;;3.42;1.35;;;;;;;22.08;45.00;101150.88;4882265;29;20081;-93
2023/09/13 14:37:26;;;;;;;3.15;1.40;;;;;;;22.31;45.61;101145.25;4883843;29;20049;-94
2023/09/13 14:39:52;;;;;;;7.50;1.40;;;;;;;22.50;45.14;101150.38;4881083;29;20104;-95
2023/09/13 14:42:17;;;;;;;3.92;1.52;;;;;;;22.83;44.00;101150.72;4881235;29;20484;-94
2023/09/13 14:44:42;;;;;;;4.30;1.73;;;;;;;22.84;43.34;101160.25;4881157;29;20424;-95
2023/09/13 14:47:08;;;;;;;7.65;1.50;;;;;;;22.41;42.08;101162.63;4881791;29;20035;-94
2023/09/13 14:49:33;;;;;;;3.15;1.70;;;;;;;22.08;43.08;101156.13;4880335;29;20063;-94
2023/09/13 14:52:00;;;;;;;4.00;2.40;;;;;;;21.78;43.55;101144.91;4885855;29;20479;-95
2023/09/13 14:54:25;;;;;;;4.85;3.08;;;;;;;21.98;45.61;101142.22;4880385;29;20096;-95
2023/09/13 14:56:50;;;;;;;5.85;1.92;;;;;;;21.69;45.10;101139.69;4894838;29;20025;-94
2023/09/13 14:59:17;;;;;;;5.35;1.85;;;;;;;21.89;45.90;101141.25;4880302;29;20060;-95
2023/09/13 15:01:43;;;;;;;6.47;2.13;;;;;;;22.05;46.80;101139.84;4880884;29;20357;-96
2023/09/13 15:04:10;;;;;;;5.97;2.10;;;;;;;22.16;46.67;101140.44;4881277;29;20033;-95
2023/09/13 15:06:39;;;;;;;4.72;1.30;;;;;;;22.20;46.35;101128.69;4887896;29;20053;-95
2023/09/13 15:09:10;;;;;;;5.43;2.03;;;;;;;22.40;45.61;101131.22;4881352;29;20237;-95
2023/09/13 15:11:36;;;;;;;6.07;1.80;;;;;;;22.12;45.50;101136.47;4880458;29;20029;-96
2023/09/13 15:14:03;;;;;;;6.43;2.50;;;;;;;21.57;45.56;101125.91;4881018;29;20032;-95
2023/09/13 15:16:29;;;;;;;4.97;2.13;;;;;;;21.67;46.27;101118.81;4899481;29;20128;-95
2023/09/13 15:18:56;;;;;;;8.10;2.25;;;;;;;21.59;46.01;101119.53;4881221;29;20040;-94
2023/09/13 15:21:23;;;;;;;6.75;1.98;;;;;;;21.35;47.18;101125.22;4881055;29;20040;-95
2023/09/13 15:23:48;;;;;;;5.85;2.13;;;;;;;21.04;46.66;101129.00;4880571;29;20072;-95
2023/09/13 15:26:14;;;;;;;7.95;2.67;;;;;;;21.18;47.58;101128.56;4880614;29;20108;-95
2023/09/13 15:28:39;;;;;;;4.43;1.85;;;;;;;20.95;47.03;101121.00;4875606;29;20184;-94
2023/09/13 15:31:05;;;;;;;7.68;3.03;;;;;;;20.77;47.51;101124.44;4881496;29;20033;-95
2023/09/13 15:33:30;;;;;;;4.07;1.90;;;;;;;20.87;47.59;101123.50;4880767;29;20029;-95
2023/09/13 15:35:55;;;;;;;15.85;2.03;;;;;;;20.61;48.73;101125.00;4879394;29;20128;-95
2023/09/13 15:38:21;;;;;;;7.22;2.45;;;;;;;20.79;48.24;101120.72;4883065;29;20492;-95
2023/09/13 15:40:46;;;;;;;7.20;2.17;;;;;;;20.39;47.21;101119.00;4879804;29;20059;-94
2023/09/13 15:43:12;;;;;;;6.32;2.10;;;;;;;20.75;48.70;101111.44;4879321;29;20101;-96
2023/09/13 15:45:37;;;;;;;5.07;1.50;;;;;;;20.55;46.63;101122.88;4884234;29;20059;-95
2023/09/13 15:48:06;;;;;;;5.60;2.00;;;;;;;20.33;47.49;101113.47;4879113;29;20041;-95
2023/09/13 15:50:32;;;;;;;3.75;1.70;;;;;;;20.25;47.68;101108.91;4879289;29;20032;-96
2023/09/13 15:52:58;;;;;;;4.50;1.77;;;;;;;20.36;47.28;101113.19;4885185;29;20373;-96
2023/09/13 15:55:24;;;;;;;6.80;2.20;;;;;;;20.46;46.69;101104.38;4880665;29;20044;-95
2023/09/13 15:57:50;;;;;;;4.93;1.95;;;;;;;20.41;46.92;101110.97;4880366;29;20033;-94
2023/09/13 16:00:15;;;;;;;3.85;1.90;;;;;;;20.33;46.56;101109.03;4884090;29;20033;-94
2023/09/13 16:02:41;;;;;;;9.23;2.13;;;;;;;20.28;47.47;101112.06;4878599;29;20107;-94
2023/09/13 16:05:07;;;;;;;5.53;2.53;;;;;;;20.38;47.90;101106.84;4879420;29;20127;-93
2023/09/13 16:07:34;;;;;;;4.57;2.05;;;;;;;20.41;47.04;101109.22;4878869;29;20029;-96
2023/09/13 16:10:06;;;;;;;6.35;2.13;;;;;;;20.48;48.10;101112.09;4880314;29;20033;-94
2023/09/13 16:12:32;;;;;;;2.80;1.70;;;;;;;20.47;47.01;101108.66;4880411;29;20025;-94
2023/09/13 16:14:58;;;;;;;7.45;1.95;;;;;;;20.39;48.57;101113.75;4881165;29;20563;-96
2023/09/13 16:17:24;;;;;;;3.15;1.42;;;;;;;20.35;47.50;101112.34;4879868;29;20040;-96
2023/09/13 16:19:50;;;;;;;3.35;1.70;;;;;;;20.23;49.12;101108.19;4880414;29;20447;-96
2023/09/13 16:22:16;;;;;;;7.75;1.90;;;;;;;20.23;48.18;101109.03;4879579;29;20117;-96
2023/09/13 16:24:42;;;;;;;3.08;1.60;;;;;;;20.15;48.62;101108.88;4867847;29;20029;-95
2023/09/13 16:27:07;;;;;;;4.03;2.22;;;;;;;20.18;47.80;101108.59;4871807;29;20040;-95
2023/09/13 16:29:33;;;;;;;5.80;2.10;;;;;;;20.14;47.89;101103.75;4879170;29;20033;-96
2023/09/13 16:32:00;;;;;;;5.43;1.80;;;;;;;20.03;47.76;101104.69;4887536;29;20056;-96
2023/09/13 16:37:00;;;;;;;4.15;1.98;;;;;;;19.82;48.95;101105.56;4922015;29;20067;-95
2023/09/13 16:39:25;;;;;;;3.60;1.67;;;;;;;19.85;50.13;101104.50;4921636;29;20028;-95
2023/09/13 16:41:50;;;;;;;3.60;1.85;;;;;;;19.91;49.06;101119.69;4927287;29;20038;-96
2023/09/13 16:44:16;;;;;;;3.72;1.90;;;;;;;19.82;49.37;101110.81;4928533;29;20088;-93
2023/09/13 16:46:42;;;;;;;4.60;2.30;;;;;;;19.77;49.37;101114.78;4925359;29;20579;-96
2023/09/13 16:49:11;;;;;;;5.47;2.70;;;;;;;19.70;49.13;101109.25;4952175;23;20047;-95
2023/09/13 16:51:37;;;;;;;4.07;1.90;;;;;;;19.52;48.52;101116.84;4945339;29;20087;-96
2023/09/13 16:54:05;;;;;;;3.05;1.60;;;;;;;19.48;49.26;101118.06;4954605;23;20060;-95
2023/09/13 16:56:43;;;;;;;4.18;2.35;;;;;;;19.44;50.12;101116.69;4951014;23;20028;-96
2023/09/13 16:59:18;;;;;;;;;;;;;;;;;;;;;
2023/09/13 17:01:54;;;;;;;;;;;;;;;;;;;;;
2023/09/13 17:04:20;;;;;;;3.28;1.73;;;;;;;19.54;49.48;101107.09;4925906;29;20114;-95
2023/09/13 17:06:45;;;;;;;2.83;1.40;;;;;;;19.48;49.84;101109.38;4923701;29;20051;-92
2023/09/13 17:09:12;;;;;;;4.50;1.83;;;;;;;19.53;50.96;101108.06;4919079;29;20054;-95
2023/09/13 17:11:40;;;;;;;4.55;2.00;;;;;;;19.46;50.16;101109.53;4916865;29;20040;-95
2023/09/13 17:14:05;;;;;;;3.13;1.80;;;;;;;19.50;52.19;101104.84;4917419;29;20124;-93
2023/09/13 17:16:31;;;;;;;4.28;2.42;;;;;;;19.51;54.92;101109.97;4915973;29;20140;-94
2023/09/13 17:18:56;;;;;;;3.25;2.20;;;;;;;19.48;55.17;101104.97;4914432;29;20040;-93
2023/09/13 17:21:22;;;;;;;4.93;2.10;;;;;;;19.41;55.87;101107.31;4912862;29;20032;-95
2023/09/13 17:23:47;;;;;;;4.70;1.83;;;;;;;19.33;56.09;101103.66;4913886;29;20024;-94
2023/09/13 17:26:12;;;;;;;6.20;2.65;;;;;;;19.31;55.60;101098.53;4916992;29;20043;-93
2023/09/13 17:28:38;;;;;;;3.88;2.42;;;;;;;19.21;52.74;101106.31;4921986;29;20073;-95
2023/09/13 17:31:03;;;;;;;10.35;2.80;;;;;;;19.17;55.63;101098.88;4917488;29;20119;-92
2023/09/13 17:33:29;;;;;;;7.88;3.45;;;;;;;19.13;58.98;101108.75;4914015;29;20541;-90
2023/09/13 17:35:54;;;;;;;6.25;3.13;;;;;;;18.98;61.16;101096.97;4915538;29;20319;-93
2023/09/13 17:38:20;;;;;;;6.20;3.42;;;;;;;18.95;62.67;101100.66;4915824;29;20035;-92
2023/09/13 17:40:46;;;;;;;7.40;5.07;;;;;;;19.00;65.07;101103.72;4916148;29;20059;-93
2023/09/13 17:43:12;;;;;;;9.32;5.53;;;;;;;18.87;65.16;101104.84;4916568;29;20051;-94
2023/09/13 17:45:38;;;;;;;7.97;5.18;;;;;;;18.76;66.42;101105.72;4917032;29;20459;-93
2023/09/13 17:48:04;;;;;;;8.30;5.57;;;;;;;18.62;67.41;101101.59;4916706;29;20038;-91
2023/09/13 17:50:29;;;;;;;4.57;3.13;;;;;;;18.65;69.08;101109.16;4919432;29;20028;-93
2023/09/13 17:52:54;;;;;;;5.38;2.80;;;;;;;18.58;69.76;101116.69;4916307;29;20036;-94
2023/09/13 17:57:16;;;;;;;6.70;2.30;;;;;;;18.40;72.76;101115.53;5069981;28;20391;-94
2023/09/13 17:59:42;;;;;;;4.45;2.85;;;;;;;18.38;72.42;101113.03;5072837;28;20422;-95
2023/09/13 18:02:08;;;;;;;3.92;1.70;;;;;;;18.36;73.00;101112.34;5070795;28;20078;-95
2023/09/13 18:04:34;;;;;;;3.53;1.70;;;;;;;17.96;74.68;101122.50;5058807;28;20108;-95
2023/09/13 18:06:59;;;;;;;5.22;2.20;;;;;;;17.90;73.37;101122.97;5050506;28;20041;-96
2023/09/13 18:09:25;;;;;;;5.15;2.22;;;;;;;17.90;73.21;101108.13;5052010;28;20071;-95
2023/09/13 18:11:52;;;;;;;5.47;2.20;;;;;;;17.66;74.82;101113.44;5058581;28;20040;-94
2023/09/13 18:14:18;;;;;;;3.67;1.95;;;;;;;17.67;74.27;101114.25;5059765;28;20025;-93
2023/09/13 18:16:43;;;;;;;7.20;2.40;;;;;;;17.30;73.63;101109.22;5052297;28;20096;-93
2023/09/13 18:19:09;;;;;;;4.40;2.40;;;;;;;17.37;72.56;101105.19;5052932;28;20021;-94
2023/09/13 18:21:34;;;;;;;3.92;1.90;;;;;;;17.26;72.97;101102.56;5062428;28;20409;-93
2023/09/13 18:23:59;;;;;;;6.35;2.50;;;;;;;17.10;71.80;101103.72;5057467;28;20090;-92
2023/09/13 18:26:25;;;;;;;6.65;2.92;;;;;;;16.80;71.91;101105.97;5059412;28;20033;-93
2023/09/13 18:28:52;;;;;;;15.77;8.88;;;;;;;16.75;72.22;101110.66;5053142;28;20032;-93
2023/09/13 18:31:18;;;;;;;21.45;12.40;;;;;;;16.63;73.67;101107.16;5062370;28;20049;-93
2023/09/13 18:33:45;;;;;;;14.68;8.25;;;;;;;16.86;73.10;101108.97;5053117;28;20072;-91
2023/09/13 18:36:10;;;;;;;7.25;3.90;;;;;;;16.72;71.86;101106.50;5049642;28;20029;-92
2023/09/13 18:38:35;;;;;;;8.00;4.47;;;;;;;16.69;71.12;101104.94;5049485;28;20025;-92
2023/09/13 18:41:01;;;;;;;8.70;4.63;;;;;;;16.44;71.46;101108.50;5061671;28;20043;-92
2023/09/13 18:43:27;;;;;;;11.98;5.80;;;;;;;16.33;71.97;101118.84;5067185;28;20049;-92
2023/09/13 18:45:59;;;;;;;8.77;5.03;;;;;;;16.38;72.79;101111.53;5065532;28;20237;-93
2023/09/13 18:48:25;;;;;;;9.68;5.00;;;;;;;16.17;74.34;101103.47;5066881;28;20111;-92
2023/09/13 18:50:58;;;;;;;13.43;7.10;;;;;;;16.01;75.35;101097.66;5068597;28;20109;-92
2023/09/13 18:53:25;;;;;;;27.23;12.25;;;;;;;15.90;76.33;101089.75;5064163;28;20013;-94
2023/09/13 18:55:52;;;;;;;81.72;39.05;;;;;;;15.89;74.15;101093.31;5050549;28;20029;-92
2023/09/13 18:58:17;;;;;;;37.10;18.30;;;;;;;15.56;75.92;101105.06;5047465;28;20048;-92
2023/09/13 19:00:44;;;;;;;6.18;3.30;;;;;;;15.56;76.54;101108.50;5048510;28;20090;-92
2023/09/13 19:03:09;;;;;;;9.75;2.83;;;;;;;15.57;77.21;101110.16;5061540;28;20031;-93
2023/09/13 19:05:34;;;;;;;9.20;3.35;;;;;;;15.53;75.94;101107.84;5068006;28;20099;-92
2023/09/13 19:08:00;;;;;;;3.45;2.25;;;;;;;15.53;75.71;101102.66;5056318;28;20067;-92
2023/09/13 19:10:25;;;;;;;3.75;2.40;;;;;;;15.56;76.85;101107.69;5041757;28;20451;-92
2023/09/13 19:12:50;;;;;;;5.65;2.35;;;;;;;15.52;76.72;101112.22;5051530;28;20067;-92
2023/09/13 19:15:16;;;;;;;17.95;9.32;;;;;;;15.37;76.27;101114.09;5034782;28;20029;-93
2023/09/13 19:17:42;;;;;;;26.63;14.30;;;;;;;15.36;75.17;101120.25;5035332;28;20028;-93
2023/09/13 19:20:08;;;;;;;17.52;9.88;;;;;;;15.30;76.23;101122.41;5035191;28;20021;-93
2023/09/13 19:22:33;;;;;;;21.77;12.30;;;;;;;15.43;76.56;101118.06;5043849;28;20025;-91
2023/09/13 19:24:59;;;;;;;39.17;19.08;;;;;;;15.37;76.87;101119.31;5054967;28;20096;-93
2023/09/13 19:27:24;;;;;;;30.73;15.43;;;;;;;15.15;77.60;101127.69;5054019;28;20117;-92
2023/09/13 19:29:50;;;;;;;18.13;10.30;;;;;;;15.24;78.42;101123.66;5051395;28;20029;-94
2023/09/13 19:32:16;;;;;;;15.82;7.80;;;;;;;15.02;80.74;101138.97;5054004;28;20478;-93
2023/09/13 19:34:47;;;;;;;5.38;2.70;;;;;;;14.68;85.84;101141.13;5222311;22;20583;-96
2023/09/13 19:37:12;;;;;;;11.93;4.25;;;;;;;14.92;84.33;101144.81;5038136;28;20013;-94
2023/09/13 19:39:38;;;;;;;5.05;2.80;;;;;;;14.94;84.84;101140.31;5035445;28;20112;-96
2023/09/13 19:42:03;;;;;;;5.32;2.60;;;;;;;14.95;83.58;101148.97;5035136;28;20419;-93
2023/09/13 19:44:28;;;;;;;6.07;3.03;;;;;;;14.89;84.56;101147.56;5035321;28;20052;-95
2023/09/13 19:46:54;;;;;;;7.43;4.60;;;;;;;14.81;86.52;101152.44;5030271;28;20033;-94
2023/09/13 19:49:20;;;;;;;7.53;4.10;;;;;;;14.90;87.47;101159.66;5027228;28;20029;-96
2023/09/13 19:51:45;;;;;;;7.30;3.53;;;;;;;14.79;89.32;101149.09;5021074;28;20391;-92
2023/09/13 19:54:11;;;;;;;5.50;2.85;;;;;;;14.75;91.18;101158.00;5030459;28;20041;-93
2023/09/13 19:56:36;;;;;;;7.40;2.90;;;;;;;14.77;93.73;101158.75;5033732;28;20044;-92
2023/09/13 19:59:01;;;;;;;7.60;3.67;;;;;;;14.89;93.00;101152.78;5034066;28;20030;-93
2023/09/13 20:01:27;;;;;;;7.78;3.78;;;;;;;14.67;93.85;101149.88;5015183;28;20032;-95
2023/09/13 20:03:52;;;;;;;7.75;3.67;;;;;;;14.76;94.62;101155.31;5020789;28;20088;-95
2023/09/13 20:06:19;;;;;;;8.80;3.85;;;;;;;14.64;96.01;101163.06;5033844;28;20112;-95
2023/09/13 20:08:45;;;;;;;10.63;4.00;;;;;;;14.79;95.75;101162.09;5033607;28;20204;-94
2023/09/13 20:11:11;;;;;;;11.60;4.18;;;;;;;14.53;96.94;101164.59;5032845;28;20132;-91
2023/09/13 20:13:39;;;;;;;7.13;3.83;;;;;;;14.68;95.45;101167.13;5033404;28;20042;-92
2023/09/13 20:16:04;;;;;;;12.02;6.20;;;;;;;14.54;96.85;101166.25;5033025;28;20025;-95
2023/09/13 20:18:29;;;;;;;8.60;4.90;;;;;;;14.36;100.00;101167.34;5032680;28;20087;-94
2023/09/13 20:21:01;;;;;;;9.95;5.07;;;;;;;14.43;100.00;101167.81;5032998;28;20064;-94
2023/09/13 20:23:26;;;;;;;9.77;5.57;;;;;;;14.46;100.00;101163.25;5033247;28;20360;-94
2023/09/13 20:25:53;;;;;;;11.88;6.30;;;;;;;14.47;100.00;101174.47;5032492;28;20037;-93
2023/09/13 20:28:18;;;;;;;17.67;8.57;;;;;;;14.60;100.00;101170.22;5033350;28;20390;-94
2023/09/13 20:30:43;;;;;;;14.27;6.30;;;;;;;14.39;100.00;101172.38;5033381;28;20096;-94
2023/09/13 20:33:09;;;;;;;13.65;8.00;;;;;;;14.29;100.00;101176.47;5031879;28;20025;-94
2023/09/13 20:35:34;;;;;;;16.33;7.30;;;;;;;14.26;100.00;101166.25;5031449;28;20510;-93
2023/09/13 20:38:01;;;;;;;8.52;4.70;;;;;;;14.19;100.00;101172.72;5033437;28;20023;-95
2023/09/13 20:40:26;;;;;;;11.52;4.90;;;;;;;14.15;100.00;101179.06;5033633;28;20030;-93
2023/09/13 20:42:53;;;;;;;8.23;4.60;;;;;;;14.08;100.00;101178.59;5032178;28;20025;-94
2023/09/13 20:45:18;;;;;;;7.15;4.25;;;;;;;14.19;100.00;101185.72;5033491;28;20031;-94
2023/09/13 20:47:43;;;;;;;6.60;3.67;;;;;;;14.17;100.00;101188.41;5033849;28;20022;-94
2023/09/13 20:50:09;;;;;;;6.57;3.70;;;;;;;14.14;100.00;101186.00;5033544;28;20041;-94
2023/09/13 20:52:34;;;;;;;9.55;4.10;;;;;;;14.10;100.00;101182.75;5033458;28;20032;-94
2023/09/13 20:55:00;;;;;;;6.70;3.47;;;;;;;14.01;100.00;101178.13;5031632;28;20100;-94
2023/09/13 20:57:25;;;;;;;8.23;3.03;;;;;;;14.00;100.00;101176.47;5033305;28;20141;-94
2023/09/13 20:59:50;;;;;;;9.32;3.38;;;;;;;14.05;100.00;101182.19;5033123;28;20021;-94
2023/09/13 21:02:16;;;;;;;7.72;2.85;;;;;;;14.01;100.00;101178.13;5033312;28;20527;-94
2023/09/13 21:04:41;;;;;;;5.43;2.72;;;;;;;14.05;100.00;101177.00;5033321;28;20113;-94
2023/09/13 21:07:07;;;;;;;11.40;3.30;;;;;;;13.98;100.00;101183.50;5031163;28;20040;-94
2023/09/13 21:09:33;;;;;;;7.38;2.97;;;;;;;13.98;100.00;101175.72;5033169;28;20028;-95
2023/09/13 21:11:58;;;;;;;4.80;2.80;;;;;;;14.03;100.00;101176.25;5023024;28;20076;-94
2023/09/13 21:14:23;;;;;;;7.45;3.00;;;;;;;13.93;100.00;101175.16;5012982;28;20034;-94
2023/09/13 21:16:49;;;;;;;10.23;2.92;;;;;;;13.90;100.00;101176.16;5011751;28;20034;-94
2023/09/13 21:19:14;;;;;;;9.23;2.78;;;;;;;13.87;100.00;101165.13;5013183;28;20025;-95
2023/09/13 21:21:40;;;;;;;4.30;2.80;;;;;;;14.03;100.00;101163.28;5011274;28;20018;-94
2023/09/13 21:24:06;;;;;;;3.75;2.70;;;;;;;13.98;100.00;101167.91;5012759;28;20026;-94
2023/09/13 21:26:31;;;;;;;7.22;2.75;;;;;;;13.98;100.00;101170.53;5012599;28;20083;-94
2023/09/13 21:28:57;;;;;;;6.38;3.05;;;;;;;14.03;100.00;101168.47;5011237;28;20033;-94
2023/09/13 21:31:22;;;;;;;5.40;2.50;;;;;;;13.90;100.00;101167.56;5012025;28;20192;-94
2023/09/13 21:33:48;;;;;;;7.60;2.80;;;;;;;13.88;100.00;101172.00;5011103;28;20025;-94
2023/09/13 21:36:14;;;;;;;6.22;2.22;;;;;;;13.91;100.00;101169.22;5012233;28;20140;-95
2023/09/13 21:38:40;;;;;;;8.00;2.70;;;;;;;13.86;100.00;101168.66;5012534;28;20396;-94
2023/09/13 21:41:08;;;;;;;5.00;2.47;;;;;;;13.67;100.00;101164.53;5012057;28;20030;-95
2023/09/13 21:43:34;;;;;;;4.63;2.67;;;;;;;13.77;100.00;101164.00;5010792;28;20068;-94
2023/09/13 21:46:00;;;;;;;4.05;2.50;;;;;;;13.73;100.00;101158.19;5011009;28;20434;-95
2023/09/13 21:48:26;;;;;;;5.30;2.30;;;;;;;13.54;100.00;101163.59;5020180;28;20390;-92
2023/09/13 21:50:51;;;;;;;3.47;2.72;;;;;;;13.65;100.00;101165.56;5030807;28;20030;-93
2023/09/13 21:53:17;;;;;;;2.75;2.00;;;;;;;13.27;100.00;101153.91;5031820;28;20044;-94
2023/09/13 21:55:43;;;;;;;3.78;2.83;;;;;;;13.25;100.00;101163.50;5030460;28;20025;-94
2023/09/13 21:58:19;;;;;;;5.43;2.50;;;;;;;13.26;100.00;101160.00;5030534;28;20108;-94
2023/09/13 22:00:45;;;;;;;7.72;3.38;;;;;;;13.37;100.00;101153.38;5031830;28;20029;-94
2023/09/13 22:03:10;;;;;;;4.32;2.40;;;;;;;13.29;100.00;101153.81;5031749;28;20026;-93
2023/09/13 22:05:36;;;;;;;4.18;2.30;;;;;;;13.16;100.00;101152.81;5031061;28;20124;-94
2023/09/13 22:08:01;;;;;;;9.80;3.28;;;;;;;13.26;100.00;101143.56;5031510;28;20030;-94
2023/09/13 22:10:27;;;;;;;8.48;3.70;;;;;;;13.22;100.00;101142.94;5030502;28;20118;-94
2023/09/13 22:12:52;;;;;;;5.22;2.88;;;;;;;13.27;100.00;101150.47;5031592;28;20382;-94
2023/09/13 22:15:19;;;;;;;5.82;3.58;;;;;;;13.13;100.00;101148.63;5031836;28;20049;-94
2023/09/13 22:17:45;;;;;;;5.18;3.35;;;;;;;13.05;100.00;101156.03;5031616;28;20116;-95
2023/09/13 22:20:10;;;;;;;9.07;3.65;;;;;;;13.13;100.00;101158.19;5031766;28;20045;-94
2023/09/13 22:22:36;;;;;;;6.45;3.22;;;;;;;13.16;100.00;101155.41;5031446;28;20033;-93
2023/09/13 22:25:01;;;;;;;8.73;4.20;;;;;;;13.21;100.00;101155.97;5031676;28;20030;-94
2023/09/13 22:27:26;;;;;;;7.20;3.50;;;;;;;13.09;100.00;101147.13;5031522;28;20025;-94
2023/09/13 22:29:55;;;;;;;6.80;4.13;;;;;;;12.97;100.00;101147.81;5031723;28;20025;-94
2023/09/13 22:32:20;;;;;;;5.72;2.85;;;;;;;12.93;100.00;101146.34;5031679;28;20024;-94
2023/09/13 22:34:46;;;;;;;4.15;2.65;;;;;;;12.91;100.00;101161.13;5031266;28;20042;-94